Terminal Aerodrome Forecast
Issued by NWS

Home | Current Version | Previous Version | Text Only | Print | Product List | Glossary Off
Versions: 1 2 3 4 5 6 7 8 9 10 11 12 13 14 15

827
FTUS42 KTBW 012342
TAFRSW
TAF
KRSW 012342Z 0200/0224 25008KT P6SM VCSH SCT050
     FM020200 13006KT P6SM VCTS FEW035CB SCT050
     FM020300 11005KT P6SM SCT040
     FM020500 11005KT P6SM SCT250
     FM021500 15009KT P6SM SCT040 SCT120
     FM021800 18010KT P6SM BKN050
     FM022000 23012KT P6SM VCTS BKN050CB=

USA.gov is the U.S. government's official web portal to all federal, state and local government web resources and services.